sensor_id;sensor_type;location;lat;lon;timestamp;P1;durP1;ratioP1;P2;durP2;ratioP2
20379;SDS011;10349;48.666;8.948;2023-10-08T00:02:44;6.07;;;3.27;;
20379;SDS011;10349;48.666;8.948;2023-10-08T00:05:10;4.70;;;3.53;;
20379;SDS011;10349;48.666;8.948;2023-10-08T00:07:36;4.20;;;3.20;;
20379;SDS011;10349;48.666;8.948;2023-10-08T00:10:01;4.97;;;3.30;;
20379;SDS011;10349;48.666;8.948;2023-10-08T00:12:27;3.33;;;2.80;;
20379;SDS011;10349;48.666;8.948;2023-10-08T00:14:55;4.20;;;2.13;;
20379;SDS011;10349;48.666;8.948;2023-10-08T00:17:24;4.43;;;3.10;;
20379;SDS011;10349;48.666;8.948;2023-10-08T00:19:50;3.60;;;3.07;;
20379;SDS011;10349;48.666;8.948;2023-10-08T00:22:17;8.73;;;4.07;;
20379;SDS011;10349;48.666;8.948;2023-10-08T00:24:45;3.40;;;3.10;;
20379;SDS011;10349;48.666;8.948;2023-10-08T00:27:12;5.97;;;4.27;;
20379;SDS011;10349;48.666;8.948;2023-10-08T00:29:40;5.13;;;3.33;;
20379;SDS011;10349;48.666;8.948;2023-10-08T00:32:08;3.90;;;3.50;;
20379;SDS011;10349;48.666;8.948;2023-10-08T00:34:41;4.00;;;3.60;;
20379;SDS011;10349;48.666;8.948;2023-10-08T00:37:08;4.47;;;4.00;;
20379;SDS011;10349;48.666;8.948;2023-10-08T00:39:36;4.07;;;2.83;;
20379;SDS011;10349;48.666;8.948;2023-10-08T00:42:04;5.57;;;3.07;;
20379;SDS011;10349;48.666;8.948;2023-10-08T00:44:32;4.07;;;3.13;;
20379;SDS011;10349;48.666;8.948;2023-10-08T00:47:07;3.13;;;2.90;;
20379;SDS011;10349;48.666;8.948;2023-10-08T00:49:36;4.73;;;3.53;;
20379;SDS011;10349;48.666;8.948;2023-10-08T00:52:14;4.03;;;3.07;;
20379;SDS011;10349;48.666;8.948;2023-10-08T00:54:41;7.17;;;3.70;;
20379;SDS011;10349;48.666;8.948;2023-10-08T00:57:18;6.67;;;3.60;;
20379;SDS011;10349;48.666;8.948;2023-10-08T00:59:47;4.27;;;3.17;;
20379;SDS011;10349;48.666;8.948;2023-10-08T01:02:20;5.27;;;3.10;;
20379;SDS011;10349;48.666;8.948;2023-10-08T01:04:50;9.87;;;3.27;;
20379;SDS011;10349;48.666;8.948;2023-10-08T01:07:16;3.97;;;3.40;;
20379;SDS011;10349;48.666;8.948;2023-10-08T01:09:44;3.70;;;3.40;;
20379;SDS011;10349;48.666;8.948;2023-10-08T01:12:16;5.43;;;3.40;;
20379;SDS011;10349;48.666;8.948;2023-10-08T01:14:46;3.87;;;3.00;;
20379;SDS011;10349;48.666;8.948;2023-10-08T01:17:14;3.93;;;2.63;;
20379;SDS011;10349;48.666;8.948;2023-10-08T01:19:50;4.10;;;3.00;;
20379;SDS011;10349;48.666;8.948;2023-10-08T01:22:21;3.40;;;3.10;;
20379;SDS011;10349;48.666;8.948;2023-10-08T01:24:47;5.17;;;2.93;;
20379;SDS011;10349;48.666;8.948;2023-10-08T01:27:15;3.83;;;2.80;;
20379;SDS011;10349;48.666;8.948;2023-10-08T01:29:49;3.00;;;2.80;;
20379;SDS011;10349;48.666;8.948;2023-10-08T01:32:18;7.37;;;3.97;;
20379;SDS011;10349;48.666;8.948;2023-10-08T01:34:45;4.33;;;2.87;;
20379;SDS011;10349;48.666;8.948;2023-10-08T01:37:20;5.10;;;3.70;;
20379;SDS011;10349;48.666;8.948;2023-10-08T01:39:46;4.80;;;3.00;;
20379;SDS011;10349;48.666;8.948;2023-10-08T01:42:16;5.40;;;3.13;;
20379;SDS011;10349;48.666;8.948;2023-10-08T01:44:46;4.33;;;3.30;;
20379;SDS011;10349;48.666;8.948;2023-10-08T01:47:16;4.70;;;2.50;;
20379;SDS011;10349;48.666;8.948;2023-10-08T01:49:43;7.10;;;3.30;;
20379;SDS011;10349;48.666;8.948;2023-10-08T01:52:10;4.90;;;3.10;;
20379;SDS011;10349;48.666;8.948;2023-10-08T01:54:43;6.23;;;3.17;;
20379;SDS011;10349;48.666;8.948;2023-10-08T01:57:10;4.83;;;2.80;;
20379;SDS011;10349;48.666;8.948;2023-10-08T01:59:37;6.67;;;2.93;;
20379;SDS011;10349;48.666;8.948;2023-10-08T02:02:04;8.20;;;2.93;;
20379;SDS011;10349;48.666;8.948;2023-10-08T02:04:34;4.10;;;2.70;;
20379;SDS011;10349;48.666;8.948;2023-10-08T02:07:04;4.80;;;2.37;;
20379;SDS011;10349;48.666;8.948;2023-10-08T02:09:37;5.40;;;2.70;;
20379;SDS011;10349;48.666;8.948;2023-10-08T02:12:04;8.90;;;3.53;;
20379;SDS011;10349;48.666;8.948;2023-10-08T02:14:29;3.73;;;2.80;;
20379;SDS011;10349;48.666;8.948;2023-10-08T02:16:57;3.23;;;2.37;;
20379;SDS011;10349;48.666;8.948;2023-10-08T02:19:28;5.47;;;3.30;;
20379;SDS011;10349;48.666;8.948;2023-10-08T02:21:54;4.13;;;3.03;;
20379;SDS011;10349;48.666;8.948;2023-10-08T02:24:23;7.83;;;3.20;;
20379;SDS011;10349;48.666;8.948;2023-10-08T02:26:50;4.60;;;2.73;;
20379;SDS011;10349;48.666;8.948;2023-10-08T02:29:19;5.53;;;3.30;;
20379;SDS011;10349;48.666;8.948;2023-10-08T02:31:45;3.10;;;2.53;;
20379;SDS011;10349;48.666;8.948;2023-10-08T02:34:11;4.07;;;3.20;;
20379;SDS011;10349;48.666;8.948;2023-10-08T02:36:37;4.07;;;3.67;;
20379;SDS011;10349;48.666;8.948;2023-10-08T02:39:05;4.13;;;2.60;;
20379;SDS011;10349;48.666;8.948;2023-10-08T02:41:40;5.13;;;2.50;;
20379;SDS011;10349;48.666;8.948;2023-10-08T02:44:12;9.87;;;3.87;;
20379;SDS011;10349;48.666;8.948;2023-10-08T02:46:42;8.30;;;2.73;;
20379;SDS011;10349;48.666;8.948;2023-10-08T02:49:21;3.43;;;3.13;;
20379;SDS011;10349;48.666;8.948;2023-10-08T02:51:54;2.57;;;2.30;;
20379;SDS011;10349;48.666;8.948;2023-10-08T02:54:20;5.93;;;2.83;;
20379;SDS011;10349;48.666;8.948;2023-10-08T02:57:01;3.57;;;2.47;;
20379;SDS011;10349;48.666;8.948;2023-10-08T02:59:35;3.43;;;2.93;;
20379;SDS011;10349;48.666;8.948;2023-10-08T03:02:05;3.60;;;2.77;;
20379;SDS011;10349;48.666;8.948;2023-10-08T03:04:44;3.73;;;2.23;;
20379;SDS011;10349;48.666;8.948;2023-10-08T03:07:11;5.00;;;3.17;;
20379;SDS011;10349;48.666;8.948;2023-10-08T03:09:49;4.13;;;3.07;;
20379;SDS011;10349;48.666;8.948;2023-10-08T03:12:16;2.93;;;2.73;;
20379;SDS011;10349;48.666;8.948;2023-10-08T03:14:43;5.00;;;3.13;;
20379;SDS011;10349;48.666;8.948;2023-10-08T03:17:27;5.87;;;3.10;;
20379;SDS011;10349;48.666;8.948;2023-10-08T03:19:54;6.43;;;3.07;;
20379;SDS011;10349;48.666;8.948;2023-10-08T03:22:28;3.23;;;2.70;;
20379;SDS011;10349;48.666;8.948;2023-10-08T03:24:59;6.90;;;3.80;;
20379;SDS011;10349;48.666;8.948;2023-10-08T03:27:40;4.93;;;3.00;;
20379;SDS011;10349;48.666;8.948;2023-10-08T03:30:07;2.73;;;2.40;;
20379;SDS011;10349;48.666;8.948;2023-10-08T03:32:39;3.67;;;2.60;;
20379;SDS011;10349;48.666;8.948;2023-10-08T03:35:07;8.23;;;3.63;;
20379;SDS011;10349;48.666;8.948;2023-10-08T03:37:36;5.37;;;2.90;;
20379;SDS011;10349;48.666;8.948;2023-10-08T03:40:07;2.83;;;2.40;;
20379;SDS011;10349;48.666;8.948;2023-10-08T03:43:07;4.27;;;2.83;;
20379;SDS011;10349;48.666;8.948;2023-10-08T03:45:45;5.30;;;3.03;;
20379;SDS011;10349;48.666;8.948;2023-10-08T03:48:18;3.63;;;2.60;;
20379;SDS011;10349;48.666;8.948;2023-10-08T03:50:47;3.93;;;3.10;;
20379;SDS011;10349;48.666;8.948;2023-10-08T03:53:22;2.93;;;2.67;;
20379;SDS011;10349;48.666;8.948;2023-10-08T03:55:48;2.43;;;2.23;;
20379;SDS011;10349;48.666;8.948;2023-10-08T03:58:22;4.23;;;2.83;;
20379;SDS011;10349;48.666;8.948;2023-10-08T04:01:03;3.30;;;2.67;;
20379;SDS011;10349;48.666;8.948;2023-10-08T04:03:50;4.30;;;2.93;;
20379;SDS011;10349;48.666;8.948;2023-10-08T04:06:16;4.47;;;2.90;;
20379;SDS011;10349;48.666;8.948;2023-10-08T04:08:47;2.70;;;2.50;;
20379;SDS011;10349;48.666;8.948;2023-10-08T04:11:34;6.50;;;3.03;;
20379;SDS011;10349;48.666;8.948;2023-10-08T04:14:20;5.27;;;2.90;;
20379;SDS011;10349;48.666;8.948;2023-10-08T04:16:46;6.67;;;2.50;;
20379;SDS011;10349;48.666;8.948;2023-10-08T04:19:17;4.17;;;2.77;;
20379;SDS011;10349;48.666;8.948;2023-10-08T04:21:44;5.97;;;2.73;;
20379;SDS011;10349;48.666;8.948;2023-10-08T04:24:11;5.87;;;3.00;;
20379;SDS011;10349;48.666;8.948;2023-10-08T04:26:39;4.23;;;2.60;;
20379;SDS011;10349;48.666;8.948;2023-10-08T04:29:06;7.10;;;2.80;;
20379;SDS011;10349;48.666;8.948;2023-10-08T04:31:32;3.03;;;2.60;;
20379;SDS011;10349;48.666;8.948;2023-10-08T04:34:09;4.97;;;3.10;;
20379;SDS011;10349;48.666;8.948;2023-10-08T04:36:44;4.20;;;2.90;;
20379;SDS011;10349;48.666;8.948;2023-10-08T04:39:11;5.27;;;3.70;;
20379;SDS011;10349;48.666;8.948;2023-10-08T04:41:47;6.90;;;2.73;;
20379;SDS011;10349;48.666;8.948;2023-10-08T04:44:17;2.43;;;2.00;;
20379;SDS011;10349;48.666;8.948;2023-10-08T04:46:43;2.50;;;2.30;;
20379;SDS011;10349;48.666;8.948;2023-10-08T04:49:14;4.20;;;2.57;;
20379;SDS011;10349;48.666;8.948;2023-10-08T04:51:53;4.83;;;3.33;;
20379;SDS011;10349;48.666;8.948;2023-10-08T04:54:28;4.03;;;2.80;;
20379;SDS011;10349;48.666;8.948;2023-10-08T04:56:57;4.83;;;2.90;;
20379;SDS011;10349;48.666;8.948;2023-10-08T04:59:24;3.90;;;3.50;;
20379;SDS011;10349;48.666;8.948;2023-10-08T05:01:57;4.03;;;3.10;;
20379;SDS011;10349;48.666;8.948;2023-10-08T05:04:45;4.03;;;2.97;;
20379;SDS011;10349;48.666;8.948;2023-10-08T05:07:17;4.10;;;3.17;;
20379;SDS011;10349;48.666;8.948;2023-10-08T05:09:47;5.10;;;3.00;;
20379;SDS011;10349;48.666;8.948;2023-10-08T05:12:40;3.30;;;3.00;;
20379;SDS011;10349;48.666;8.948;2023-10-08T05:15:24;7.10;;;2.60;;
20379;SDS011;10349;48.666;8.948;2023-10-08T05:17:59;5.03;;;3.37;;
20379;SDS011;10349;48.666;8.948;2023-10-08T05:20:37;4.67;;;3.20;;
20379;SDS011;10349;48.666;8.948;2023-10-08T05:23:24;4.70;;;3.50;;
20379;SDS011;10349;48.666;8.948;2023-10-08T05:25:54;5.07;;;3.90;;
20379;SDS011;10349;48.666;8.948;2023-10-08T05:28:38;9.73;;;3.47;;
20379;SDS011;10349;48.666;8.948;2023-10-08T05:31:33;6.07;;;3.77;;
20379;SDS011;10349;48.666;8.948;2023-10-08T05:34:07;3.57;;;3.00;;
20379;SDS011;10349;48.666;8.948;2023-10-08T05:36:42;7.57;;;3.70;;
20379;SDS011;10349;48.666;8.948;2023-10-08T05:39:26;7.73;;;4.23;;
20379;SDS011;10349;48.666;8.948;2023-10-08T05:42:05;10.30;;;6.17;;
20379;SDS011;10349;48.666;8.948;2023-10-08T05:44:45;12.33;;;5.63;;
20379;SDS011;10349;48.666;8.948;2023-10-08T05:47:30;13.27;;;7.13;;
20379;SDS011;10349;48.666;8.948;2023-10-08T05:49:59;10.83;;;7.57;;
20379;SDS011;10349;48.666;8.948;2023-10-08T05:52:41;10.10;;;6.60;;
20379;SDS011;10349;48.666;8.948;2023-10-08T05:55:28;7.63;;;5.53;;
20379;SDS011;10349;48.666;8.948;2023-10-08T05:58:05;10.67;;;6.67;;
20379;SDS011;10349;48.666;8.948;2023-10-08T06:00:44;10.63;;;6.90;;
20379;SDS011;10349;48.666;8.948;2023-10-08T06:03:33;12.07;;;7.80;;
20379;SDS011;10349;48.666;8.948;2023-10-08T06:06:25;8.87;;;6.40;;
20379;SDS011;10349;48.666;8.948;2023-10-08T06:09:02;11.67;;;6.93;;
20379;SDS011;10349;48.666;8.948;2023-10-08T06:11:35;11.43;;;5.40;;
20379;SDS011;10349;48.666;8.948;2023-10-08T06:14:31;8.00;;;5.00;;
20379;SDS011;10349;48.666;8.948;2023-10-08T06:17:15;5.53;;;3.67;;
20379;SDS011;10349;48.666;8.948;2023-10-08T06:20:10;6.90;;;4.40;;
20379;SDS011;10349;48.666;8.948;2023-10-08T06:22:42;11.40;;;4.27;;
20379;SDS011;10349;48.666;8.948;2023-10-08T06:25:08;5.07;;;3.43;;
20379;SDS011;10349;48.666;8.948;2023-10-08T06:27:48;4.17;;;3.60;;
20379;SDS011;10349;48.666;8.948;2023-10-08T06:30:24;7.53;;;4.53;;
20379;SDS011;10349;48.666;8.948;2023-10-08T06:32:54;4.33;;;3.93;;
20379;SDS011;10349;48.666;8.948;2023-10-08T06:35:21;6.83;;;3.80;;
20379;SDS011;10349;48.666;8.948;2023-10-08T06:37:51;6.47;;;4.50;;
20379;SDS011;10349;48.666;8.948;2023-10-08T06:40:20;8.90;;;3.87;;
20379;SDS011;10349;48.666;8.948;2023-10-08T06:43:06;10.37;;;3.23;;
20379;SDS011;10349;48.666;8.948;2023-10-08T06:46:03;4.17;;;3.83;;
20379;SDS011;10349;48.666;8.948;2023-10-08T06:48:32;4.67;;;2.80;;
20379;SDS011;10349;48.666;8.948;2023-10-08T06:51:00;7.83;;;3.40;;
20379;SDS011;10349;48.666;8.948;2023-10-08T06:53:41;4.87;;;2.90;;
20379;SDS011;10349;48.666;8.948;2023-10-08T06:56:10;9.17;;;3.80;;
20379;SDS011;10349;48.666;8.948;2023-10-08T06:58:37;3.30;;;3.00;;
20379;SDS011;10349;48.666;8.948;2023-10-08T07:01:06;5.77;;;3.57;;
20379;SDS011;10349;48.666;8.948;2023-10-08T07:03:35;3.40;;;3.10;;
20379;SDS011;10349;48.666;8.948;2023-10-08T07:06:03;4.27;;;3.10;;
20379;SDS011;10349;48.666;8.948;2023-10-08T07:08:43;5.13;;;3.57;;
20379;SDS011;10349;48.666;8.948;2023-10-08T07:11:20;5.70;;;2.83;;
20379;SDS011;10349;48.666;8.948;2023-10-08T07:13:46;3.37;;;3.10;;
20379;SDS011;10349;48.666;8.948;2023-10-08T07:16:12;4.57;;;3.20;;
20379;SDS011;10349;48.666;8.948;2023-10-08T07:18:42;7.70;;;3.90;;
20379;SDS011;10349;48.666;8.948;2023-10-08T07:21:18;2.57;;;2.33;;
20379;SDS011;10349;48.666;8.948;2023-10-08T07:23:49;8.70;;;3.37;;
20379;SDS011;10349;48.666;8.948;2023-10-08T07:26:29;9.37;;;4.07;;
20379;SDS011;10349;48.666;8.948;2023-10-08T07:29:12;6.13;;;4.60;;
20379;SDS011;10349;48.666;8.948;2023-10-08T07:31:45;4.63;;;3.90;;
20379;SDS011;10349;48.666;8.948;2023-10-08T07:34:17;5.37;;;4.10;;
20379;SDS011;10349;48.666;8.948;2023-10-08T07:36:51;4.63;;;3.73;;
20379;SDS011;10349;48.666;8.948;2023-10-08T07:39:22;7.10;;;3.17;;
20379;SDS011;10349;48.666;8.948;2023-10-08T07:41:59;4.03;;;3.13;;
20379;SDS011;10349;48.666;8.948;2023-10-08T07:44:26;3.23;;;2.87;;
20379;SDS011;10349;48.666;8.948;2023-10-08T07:46:54;5.83;;;3.00;;
20379;SDS011;10349;48.666;8.948;2023-10-08T07:49:20;5.53;;;2.90;;
20379;SDS011;10349;48.666;8.948;2023-10-08T07:51:48;4.53;;;2.57;;
20379;SDS011;10349;48.666;8.948;2023-10-08T07:54:17;4.43;;;2.30;;
20379;SDS011;10349;48.666;8.948;2023-10-08T07:56:48;7.83;;;2.57;;
20379;SDS011;10349;48.666;8.948;2023-10-08T07:59:41;4.70;;;2.83;;
20379;SDS011;10349;48.666;8.948;2023-10-08T08:02:12;3.20;;;2.63;;
20379;SDS011;10349;48.666;8.948;2023-10-08T08:04:38;3.50;;;2.60;;
20379;SDS011;10349;48.666;8.948;2023-10-08T08:07:15;8.73;;;2.40;;
20379;SDS011;10349;48.666;8.948;2023-10-08T08:09:46;5.30;;;3.67;;
20379;SDS011;10349;48.666;8.948;2023-10-08T08:12:17;4.43;;;2.63;;
20379;SDS011;10349;48.666;8.948;2023-10-08T08:14:44;6.53;;;3.47;;
20379;SDS011;10349;48.666;8.948;2023-10-08T08:17:10;3.47;;;3.00;;
20379;SDS011;10349;48.666;8.948;2023-10-08T08:19:42;6.03;;;2.83;;
20379;SDS011;10349;48.666;8.948;2023-10-08T08:22:10;4.37;;;3.23;;
20379;SDS011;10349;48.666;8.948;2023-10-08T08:24:45;4.27;;;3.13;;
20379;SDS011;10349;48.666;8.948;2023-10-08T08:27:12;5.23;;;2.90;;
20379;SDS011;10349;48.666;8.948;2023-10-08T08:29:52;2.50;;;2.20;;
20379;SDS011;10349;48.666;8.948;2023-10-08T08:32:21;3.13;;;2.67;;
20379;SDS011;10349;48.666;8.948;2023-10-08T08:34:49;3.60;;;2.90;;
20379;SDS011;10349;48.666;8.948;2023-10-08T08:37:18;3.17;;;2.27;;
20379;SDS011;10349;48.666;8.948;2023-10-08T08:39:48;5.40;;;2.63;;
20379;SDS011;10349;48.666;8.948;2023-10-08T08:42:14;3.57;;;2.90;;
20379;SDS011;10349;48.666;8.948;2023-10-08T08:44:46;3.10;;;2.10;;
20379;SDS011;10349;48.666;8.948;2023-10-08T08:47:17;21.80;;;3.50;;
20379;SDS011;10349;48.666;8.948;2023-10-08T08:49:50;3.43;;;2.30;;
20379;SDS011;10349;48.666;8.948;2023-10-08T08:52:20;2.70;;;2.33;;
20379;SDS011;10349;48.666;8.948;2023-10-08T08:54:45;3.70;;;2.00;;
20379;SDS011;10349;48.666;8.948;2023-10-08T08:57:12;7.00;;;3.63;;
20379;SDS011;10349;48.666;8.948;2023-10-08T08:59:42;4.30;;;2.43;;
20379;SDS011;10349;48.666;8.948;2023-10-08T09:02:15;3.33;;;2.93;;
20379;SDS011;10349;48.666;8.948;2023-10-08T09:04:42;2.37;;;2.00;;
20379;SDS011;10349;48.666;8.948;2023-10-08T09:07:08;2.50;;;1.87;;
20379;SDS011;10349;48.666;8.948;2023-10-08T09:09:35;3.53;;;2.37;;
20379;SDS011;10349;48.666;8.948;2023-10-08T09:12:05;6.03;;;2.20;;
20379;SDS011;10349;48.666;8.948;2023-10-08T09:14:32;2.10;;;1.83;;
20379;SDS011;10349;48.666;8.948;2023-10-08T09:17:02;4.10;;;2.60;;
20379;SDS011;10349;48.666;8.948;2023-10-08T09:19:35;7.57;;;3.87;;
20379;SDS011;10349;48.666;8.948;2023-10-08T09:22:05;8.33;;;2.77;;
20379;SDS011;10349;48.666;8.948;2023-10-08T09:24:40;2.77;;;2.40;;
20379;SDS011;10349;48.666;8.948;2023-10-08T09:27:07;4.87;;;2.87;;
20379;SDS011;10349;48.666;8.948;2023-10-08T09:29:39;3.80;;;2.30;;
20379;SDS011;10349;48.666;8.948;2023-10-08T09:32:11;3.20;;;2.60;;
20379;SDS011;10349;48.666;8.948;2023-10-08T09:34:49;5.03;;;2.93;;
20379;SDS011;10349;48.666;8.948;2023-10-08T09:37:17;5.73;;;3.47;;
20379;SDS011;10349;48.666;8.948;2023-10-08T09:39:47;4.97;;;2.47;;
20379;SDS011;10349;48.666;8.948;2023-10-08T09:42:16;4.97;;;2.63;;
20379;SDS011;10349;48.666;8.948;2023-10-08T09:44:44;3.43;;;2.70;;
20379;SDS011;10349;48.666;8.948;2023-10-08T09:47:09;6.43;;;2.50;;
20379;SDS011;10349;48.666;8.948;2023-10-08T09:49:40;6.23;;;2.57;;
20379;SDS011;10349;48.666;8.948;2023-10-08T09:52:16;3.93;;;2.67;;
20379;SDS011;10349;48.666;8.948;2023-10-08T09:54:43;4.20;;;3.03;;
20379;SDS011;10349;48.666;8.948;2023-10-08T09:57:15;4.77;;;2.70;;
20379;SDS011;10349;48.666;8.948;2023-10-08T09:59:43;9.63;;;3.10;;
20379;SDS011;10349;48.666;8.948;2023-10-08T10:02:11;4.00;;;2.83;;
20379;SDS011;10349;48.666;8.948;2023-10-08T10:04:41;4.60;;;2.87;;
20379;SDS011;10349;48.666;8.948;2023-10-08T10:07:14;5.20;;;2.43;;
20379;SDS011;10349;48.666;8.948;2023-10-08T10:09:45;4.03;;;2.30;;
20379;SDS011;10349;48.666;8.948;2023-10-08T10:12:12;3.70;;;2.80;;
20379;SDS011;10349;48.666;8.948;2023-10-08T10:14:43;6.23;;;3.10;;
20379;SDS011;10349;48.666;8.948;2023-10-08T10:17:14;3.40;;;2.57;;
20379;SDS011;10349;48.666;8.948;2023-10-08T10:19:49;9.63;;;2.77;;
20379;SDS011;10349;48.666;8.948;2023-10-08T10:22:26;7.60;;;3.27;;
20379;SDS011;10349;48.666;8.948;2023-10-08T10:24:54;5.20;;;2.73;;
20379;SDS011;10349;48.666;8.948;2023-10-08T10:27:21;2.70;;;2.17;;
20379;SDS011;10349;48.666;8.948;2023-10-08T10:29:47;5.10;;;3.10;;
20379;SDS011;10349;48.666;8.948;2023-10-08T10:32:13;4.80;;;1.87;;
20379;SDS011;10349;48.666;8.948;2023-10-08T10:34:40;6.60;;;2.63;;
20379;SDS011;10349;48.666;8.948;2023-10-08T10:37:07;5.17;;;2.50;;
20379;SDS011;10349;48.666;8.948;2023-10-08T10:39:56;3.40;;;2.57;;
20379;SDS011;10349;48.666;8.948;2023-10-08T10:42:35;9.73;;;2.63;;
20379;SDS011;10349;48.666;8.948;2023-10-08T10:45:12;5.47;;;2.43;;
20379;SDS011;10349;48.666;8.948;2023-10-08T10:47:59;7.07;;;2.37;;
20379;SDS011;10349;48.666;8.948;2023-10-08T10:50:45;5.00;;;2.73;;
20379;SDS011;10349;48.666;8.948;2023-10-08T10:53:37;4.10;;;3.13;;
20379;SDS011;10349;48.666;8.948;2023-10-08T10:56:21;4.50;;;3.23;;
20379;SDS011;10349;48.666;8.948;2023-10-08T10:58:58;4.80;;;2.93;;
20379;SDS011;10349;48.666;8.948;2023-10-08T11:01:28;5.23;;;2.53;;
20379;SDS011;10349;48.666;8.948;2023-10-08T11:04:09;4.50;;;2.47;;
20379;SDS011;10349;48.666;8.948;2023-10-08T11:06:41;8.27;;;3.63;;
20379;SDS011;10349;48.666;8.948;2023-10-08T11:09:10;5.50;;;3.67;;
20379;SDS011;10349;48.666;8.948;2023-10-08T11:11:41;4.77;;;2.80;;
20379;SDS011;10349;48.666;8.948;2023-10-08T11:14:11;5.07;;;2.60;;
20379;SDS011;10349;48.666;8.948;2023-10-08T11:16:46;3.73;;;2.60;;
20379;SDS011;10349;48.666;8.948;2023-10-08T11:19:19;4.53;;;2.20;;
20379;SDS011;10349;48.666;8.948;2023-10-08T11:21:51;7.33;;;2.60;;
20379;SDS011;10349;48.666;8.948;2023-10-08T11:24:30;5.07;;;3.30;;
20379;SDS011;10349;48.666;8.948;2023-10-08T11:26:59;6.97;;;2.93;;
20379;SDS011;10349;48.666;8.948;2023-10-08T11:29:44;5.00;;;3.30;;
20379;SDS011;10349;48.666;8.948;2023-10-08T11:32:14;3.93;;;2.60;;
20379;SDS011;10349;48.666;8.948;2023-10-08T11:34:45;6.93;;;2.40;;
20379;SDS011;10349;48.666;8.948;2023-10-08T11:37:15;3.50;;;3.10;;
20379;SDS011;10349;48.666;8.948;2023-10-08T11:39:52;11.00;;;2.90;;
20379;SDS011;10349;48.666;8.948;2023-10-08T11:42:18;5.10;;;2.40;;
20379;SDS011;10349;48.666;8.948;2023-10-08T11:44:59;7.00;;;2.83;;
20379;SDS011;10349;48.666;8.948;2023-10-08T11:47:46;3.57;;;2.30;;
20379;SDS011;10349;48.666;8.948;2023-10-08T11:50:17;6.37;;;2.97;;
20379;SDS011;10349;48.666;8.948;2023-10-08T11:52:46;5.60;;;3.10;;
20379;SDS011;10349;48.666;8.948;2023-10-08T11:55:12;5.40;;;3.80;;
20379;SDS011;10349;48.666;8.948;2023-10-08T11:57:50;6.20;;;3.63;;
20379;SDS011;10349;48.666;8.948;2023-10-08T12:00:16;5.00;;;2.70;;
20379;SDS011;10349;48.666;8.948;2023-10-08T12:02:48;5.00;;;2.80;;
20379;SDS011;10349;48.666;8.948;2023-10-08T12:05:14;7.20;;;3.30;;
20379;SDS011;10349;48.666;8.948;2023-10-08T12:07:51;7.17;;;2.80;;
20379;SDS011;10349;48.666;8.948;2023-10-08T12:10:18;13.03;;;3.27;;
20379;SDS011;10349;48.666;8.948;2023-10-08T12:12:52;10.03;;;3.93;;
20379;SDS011;10349;48.666;8.948;2023-10-08T12:15:21;8.00;;;3.43;;
20379;SDS011;10349;48.666;8.948;2023-10-08T12:17:47;5.13;;;3.33;;
20379;SDS011;10349;48.666;8.948;2023-10-08T12:20:39;6.83;;;3.03;;
20379;SDS011;10349;48.666;8.948;2023-10-08T12:23:11;7.97;;;3.13;;
20379;SDS011;10349;48.666;8.948;2023-10-08T12:25:44;4.20;;;2.43;;
20379;SDS011;10349;48.666;8.948;2023-10-08T12:28:16;7.50;;;3.10;;
20379;SDS011;10349;48.666;8.948;2023-10-08T12:30:44;4.60;;;3.53;;
20379;SDS011;10349;48.666;8.948;2023-10-08T12:33:11;7.70;;;2.40;;
20379;SDS011;10349;48.666;8.948;2023-10-08T12:35:41;9.00;;;3.60;;
20379;SDS011;10349;48.666;8.948;2023-10-08T12:38:09;7.30;;;2.67;;
20379;SDS011;10349;48.666;8.948;2023-10-08T12:40:36;7.57;;;2.80;;
20379;SDS011;10349;48.666;8.948;2023-10-08T12:43:12;3.60;;;2.30;;
20379;SDS011;10349;48.666;8.948;2023-10-08T12:45:44;4.80;;;3.00;;
20379;SDS011;10349;48.666;8.948;2023-10-08T12:48:23;3.20;;;2.17;;
20379;SDS011;10349;48.666;8.948;2023-10-08T12:50:51;10.97;;;3.50;;
20379;SDS011;10349;48.666;8.948;2023-10-08T12:53:23;12.07;;;2.90;;
20379;SDS011;10349;48.666;8.948;2023-10-08T12:56:02;5.77;;;2.93;;
20379;SDS011;10349;48.666;8.948;2023-10-08T12:58:32;8.17;;;2.97;;
20379;SDS011;10349;48.666;8.948;2023-10-08T13:01:07;6.70;;;3.57;;
20379;SDS011;10349;48.666;8.948;2023-10-08T13:03:36;8.60;;;2.60;;
20379;SDS011;10349;48.666;8.948;2023-10-08T13:06:08;6.00;;;3.30;;
20379;SDS011;10349;48.666;8.948;2023-10-08T13:08:39;6.03;;;2.73;;
20379;SDS011;10349;48.666;8.948;2023-10-08T13:11:06;7.60;;;2.60;;
20379;SDS011;10349;48.666;8.948;2023-10-08T13:13:31;3.40;;;2.53;;
20379;SDS011;10349;48.666;8.948;2023-10-08T13:15:58;3.73;;;2.67;;
20379;SDS011;10349;48.666;8.948;2023-10-08T13:18:28;4.60;;;4.17;;
20379;SDS011;10349;48.666;8.948;2023-10-08T13:20:54;6.30;;;2.03;;
20379;SDS011;10349;48.666;8.948;2023-10-08T13:23:20;9.00;;;3.40;;
20379;SDS011;10349;48.666;8.948;2023-10-08T13:25:52;12.90;;;2.93;;
20379;SDS011;10349;48.666;8.948;2023-10-08T13:28:29;6.00;;;2.63;;
20379;SDS011;10349;48.666;8.948;2023-10-08T13:30:55;4.20;;;2.90;;
20379;SDS011;10349;48.666;8.948;2023-10-08T13:33:21;5.07;;;3.03;;
20379;SDS011;10349;48.666;8.948;2023-10-08T13:35:50;6.20;;;2.70;;
20379;SDS011;10349;48.666;8.948;2023-10-08T13:38:17;5.43;;;2.93;;
20379;SDS011;10349;48.666;8.948;2023-10-08T13:40:47;3.23;;;2.93;;
20379;SDS011;10349;48.666;8.948;2023-10-08T13:43:35;3.23;;;2.60;;
20379;SDS011;10349;48.666;8.948;2023-10-08T13:46:05;7.60;;;3.30;;
20379;SDS011;10349;48.666;8.948;2023-10-08T13:48:35;5.23;;;4.30;;
20379;SDS011;10349;48.666;8.948;2023-10-08T13:51:04;8.57;;;3.47;;
20379;SDS011;10349;48.666;8.948;2023-10-08T13:53:36;3.00;;;2.70;;
20379;SDS011;10349;48.666;8.948;2023-10-08T13:56:02;5.20;;;3.80;;
20379;SDS011;10349;48.666;8.948;2023-10-08T13:58:32;5.20;;;3.57;;
20379;SDS011;10349;48.666;8.948;2023-10-08T14:01:05;10.40;;;2.80;;
20379;SDS011;10349;48.666;8.948;2023-10-08T14:03:45;4.23;;;2.47;;
20379;SDS011;10349;48.666;8.948;2023-10-08T14:06:12;3.17;;;2.00;;
20379;SDS011;10349;48.666;8.948;2023-10-08T14:08:39;6.90;;;2.80;;
20379;SDS011;10349;48.666;8.948;2023-10-08T14:11:04;4.80;;;3.00;;
20379;SDS011;10349;48.666;8.948;2023-10-08T14:13:30;6.67;;;2.60;;
20379;SDS011;10349;48.666;8.948;2023-10-08T14:16:01;9.80;;;3.10;;
20379;SDS011;10349;48.666;8.948;2023-10-08T14:18:33;5.77;;;2.60;;
20379;SDS011;10349;48.666;8.948;2023-10-08T14:21:09;16.87;;;3.20;;
20379;SDS011;10349;48.666;8.948;2023-10-08T14:23:37;4.90;;;2.07;;
20379;SDS011;10349;48.666;8.948;2023-10-08T14:26:09;5.73;;;3.53;;
20379;SDS011;10349;48.666;8.948;2023-10-08T14:28:35;14.00;;;3.10;;
20379;SDS011;10349;48.666;8.948;2023-10-08T14:31:16;11.67;;;3.60;;
20379;SDS011;10349;48.666;8.948;2023-10-08T14:33:43;6.63;;;2.47;;
20379;SDS011;10349;48.666;8.948;2023-10-08T14:36:24;5.37;;;3.23;;
20379;SDS011;10349;48.666;8.948;2023-10-08T14:39:11;7.10;;;2.87;;
20379;SDS011;10349;48.666;8.948;2023-10-08T14:41:55;3.70;;;2.73;;
20379;SDS011;10349;48.666;8.948;2023-10-08T14:44:39;6.27;;;2.97;;
20379;SDS011;10349;48.666;8.948;2023-10-08T14:47:06;11.13;;;2.40;;
20379;SDS011;10349;48.666;8.948;2023-10-08T14:49:32;6.90;;;3.23;;
20379;SDS011;10349;48.666;8.948;2023-10-08T14:51:59;7.40;;;3.40;;
20379;SDS011;10349;48.666;8.948;2023-10-08T14:54:26;5.13;;;3.13;;
20379;SDS011;10349;48.666;8.948;2023-10-08T14:56:53;11.23;;;5.27;;
20379;SDS011;10349;48.666;8.948;2023-10-08T14:59:19;11.80;;;4.70;;
20379;SDS011;10349;48.666;8.948;2023-10-08T15:01:46;4.87;;;4.20;;
20379;SDS011;10349;48.666;8.948;2023-10-08T15:04:12;19.30;;;12.47;;
20379;SDS011;10349;48.666;8.948;2023-10-08T15:06:40;11.70;;;6.00;;
20379;SDS011;10349;48.666;8.948;2023-10-08T15:09:05;6.23;;;2.73;;
20379;SDS011;10349;48.666;8.948;2023-10-08T15:11:33;3.20;;;2.63;;
20379;SDS011;10349;48.666;8.948;2023-10-08T15:14:03;5.13;;;2.90;;
20379;SDS011;10349;48.666;8.948;2023-10-08T15:16:37;4.60;;;2.57;;